sensor_id;sensor_type;location;lat;lon;timestamp;pressure;altitude;pressure_sealevel;temperature;humidity
35649;BME280;21768;48.562;13.414;2023-09-30T00:01:17;97897.91;;;17.90;74.17
35649;BME280;21768;48.562;13.414;2023-09-30T00:03:44;97904.75;;;17.91;74.12
35649;BME280;21768;48.562;13.414;2023-09-30T00:06:09;97904.75;;;17.91;74.21
35649;BME280;21768;48.562;13.414;2023-09-30T00:08:34;97908.19;;;17.92;74.35
35649;BME280;21768;48.562;13.414;2023-09-30T00:11:00;97909.13;;;17.94;74.70
35649;BME280;21768;48.562;13.414;2023-09-30T00:13:25;97916.19;;;17.99;74.56
35649;BME280;21768;48.562;13.414;2023-09-30T00:15:50;97908.72;;;18.04;74.71
35649;BME280;21768;48.562;13.414;2023-09-30T00:18:16;97908.84;;;18.07;74.54
35649;BME280;21768;48.562;13.414;2023-09-30T00:20:41;97917.50;;;18.11;74.41
35649;BME280;21768;48.562;13.414;2023-09-30T00:23:06;97920.13;;;18.12;74.35
35649;BME280;21768;48.562;13.414;2023-09-30T00:25:33;97925.38;;;18.15;74.27
35649;BME280;21768;48.562;13.414;2023-09-30T00:27:58;97921.34;;;18.20;74.30
35649;BME280;21768;48.562;13.414;2023-09-30T00:30:24;97930.03;;;18.24;74.15
35649;BME280;21768;48.562;13.414;2023-09-30T00:32:49;97931.84;;;18.26;73.68
35649;BME280;21768;48.562;13.414;2023-09-30T00:35:15;97939.44;;;18.25;73.56
35649;BME280;21768;48.562;13.414;2023-09-30T00:37:41;97938.69;;;18.27;73.23
35649;BME280;21768;48.562;13.414;2023-09-30T00:40:08;97941.41;;;18.30;72.51
35649;BME280;21768;48.562;13.414;2023-09-30T00:42:42;97932.97;;;18.33;72.29
35649;BME280;21768;48.562;13.414;2023-09-30T00:45:08;97933.84;;;18.33;72.07
35649;BME280;21768;48.562;13.414;2023-09-30T00:47:37;97940.69;;;18.34;70.87
35649;BME280;21768;48.562;13.414;2023-09-30T00:50:04;97935.59;;;18.34;70.92
35649;BME280;21768;48.562;13.414;2023-09-30T00:52:33;97932.22;;;18.35;70.53
35649;BME280;21768;48.562;13.414;2023-09-30T00:54:58;97936.59;;;18.38;70.79
35649;BME280;21768;48.562;13.414;2023-09-30T00:57:24;97930.81;;;18.42;70.40
35649;BME280;21768;48.562;13.414;2023-09-30T00:59:50;97938.63;;;18.45;69.98
35649;BME280;21768;48.562;13.414;2023-09-30T01:02:18;97942.09;;;18.47;69.70
35649;BME280;21768;48.562;13.414;2023-09-30T01:04:44;97944.59;;;18.46;69.33
35649;BME280;21768;48.562;13.414;2023-09-30T01:07:09;97943.84;;;18.48;69.26
35649;BME280;21768;48.562;13.414;2023-09-30T01:09:36;97943.78;;;18.47;69.33
35649;BME280;21768;48.562;13.414;2023-09-30T01:12:02;97947.09;;;18.44;69.22
35649;BME280;21768;48.562;13.414;2023-09-30T01:14:32;97949.50;;;18.41;69.02
35649;BME280;21768;48.562;13.414;2023-09-30T01:17:03;97958.91;;;18.42;68.79
35649;BME280;21768;48.562;13.414;2023-09-30T01:19:29;97959.72;;;18.41;68.35
35649;BME280;21768;48.562;13.414;2023-09-30T01:21:55;97957.03;;;18.38;68.09
35649;BME280;21768;48.562;13.414;2023-09-30T01:24:25;97967.13;;;18.35;68.23
35649;BME280;21768;48.562;13.414;2023-09-30T01:26:51;97967.94;;;18.34;68.00
35649;BME280;21768;48.562;13.414;2023-09-30T01:29:17;97973.84;;;18.33;67.94
35649;BME280;21768;48.562;13.414;2023-09-30T01:31:42;97979.66;;;18.29;67.58
35649;BME280;21768;48.562;13.414;2023-09-30T01:34:08;97985.44;;;18.25;67.79
35649;BME280;21768;48.562;13.414;2023-09-30T01:36:33;97985.28;;;18.22;67.35
35649;BME280;21768;48.562;13.414;2023-09-30T01:38:59;97985.28;;;18.22;67.62
35649;BME280;21768;48.562;13.414;2023-09-30T01:41:26;97988.66;;;18.21;67.91
35649;BME280;21768;48.562;13.414;2023-09-30T01:43:51;97986.75;;;18.17;67.73
35649;BME280;21768;48.562;13.414;2023-09-30T01:46:17;97980.63;;;18.13;67.89
35649;BME280;21768;48.562;13.414;2023-09-30T01:48:42;97991.59;;;18.11;67.91
35649;BME280;21768;48.562;13.414;2023-09-30T01:51:08;97988.78;;;18.05;67.66
35649;BME280;21768;48.562;13.414;2023-09-30T01:53:33;97986.09;;;18.01;67.74
35649;BME280;21768;48.562;13.414;2023-09-30T01:55:59;97988.56;;;18.00;67.52
35649;BME280;21768;48.562;13.414;2023-09-30T01:58:24;97985.94;;;17.98;67.61
35649;BME280;21768;48.562;13.414;2023-09-30T02:00:51;97982.44;;;17.96;67.49
35649;BME280;21768;48.562;13.414;2023-09-30T02:03:17;97990.91;;;17.95;67.45
35649;BME280;21768;48.562;13.414;2023-09-30T02:05:42;97990.09;;;17.96;67.46
35649;BME280;21768;48.562;13.414;2023-09-30T02:08:08;97992.66;;;17.96;67.59
35649;BME280;21768;48.562;13.414;2023-09-30T02:10:34;97992.66;;;17.96;67.50
35649;BME280;21768;48.562;13.414;2023-09-30T02:13:00;97994.34;;;17.96;67.33
35649;BME280;21768;48.562;13.414;2023-09-30T02:15:25;97994.41;;;17.97;67.30
35649;BME280;21768;48.562;13.414;2023-09-30T02:17:51;98004.69;;;17.99;66.86
35649;BME280;21768;48.562;13.414;2023-09-30T02:20:17;97998.78;;;18.00;67.32
35649;BME280;21768;48.562;13.414;2023-09-30T02:22:45;97991.91;;;17.99;67.17
35649;BME280;21768;48.562;13.414;2023-09-30T02:25:11;98000.47;;;17.99;67.14
35649;BME280;21768;48.562;13.414;2023-09-30T02:27:39;98000.31;;;17.96;67.53
35649;BME280;21768;48.562;13.414;2023-09-30T02:30:05;98001.13;;;17.95;67.32
35649;BME280;21768;48.562;13.414;2023-09-30T02:32:31;98004.63;;;17.97;67.36
35649;BME280;21768;48.562;13.414;2023-09-30T02:34:58;98000.38;;;17.98;67.64
35649;BME280;21768;48.562;13.414;2023-09-30T02:37:23;98006.38;;;17.98;67.83
35649;BME280;21768;48.562;13.414;2023-09-30T02:39:49;97997.91;;;17.99;67.80
35649;BME280;21768;48.562;13.414;2023-09-30T02:42:14;98013.38;;;18.02;67.78
35649;BME280;21768;48.562;13.414;2023-09-30T02:44:40;97997.31;;;18.05;68.07
35649;BME280;21768;48.562;13.414;2023-09-30T02:47:06;98007.47;;;18.04;67.58
35649;BME280;21768;48.562;13.414;2023-09-30T02:49:35;98019.28;;;18.01;67.62
35649;BME280;21768;48.562;13.414;2023-09-30T02:52:00;98009.88;;;18.00;67.41
35649;BME280;21768;48.562;13.414;2023-09-30T02:54:26;98011.63;;;18.01;67.69
35649;BME280;21768;48.562;13.414;2023-09-30T02:56:52;98019.13;;;17.98;67.81
35649;BME280;21768;48.562;13.414;2023-09-30T02:59:18;98017.31;;;17.96;67.69
35649;BME280;21768;48.562;13.414;2023-09-30T03:01:44;98026.34;;;17.89;67.77
35649;BME280;21768;48.562;13.414;2023-09-30T03:04:10;98032.28;;;17.88;68.02
35649;BME280;21768;48.562;13.414;2023-09-30T03:06:38;98033.59;;;17.80;67.97
35649;BME280;21768;48.562;13.414;2023-09-30T03:09:04;98025.81;;;17.77;68.19
35649;BME280;21768;48.562;13.414;2023-09-30T03:11:30;98037.69;;;17.77;68.45
35649;BME280;21768;48.562;13.414;2023-09-30T03:13:56;98036.03;;;17.77;68.47
35649;BME280;21768;48.562;13.414;2023-09-30T03:16:22;98027.41;;;17.75;68.73
35649;BME280;21768;48.562;13.414;2023-09-30T03:18:49;98020.41;;;17.71;68.82
35649;BME280;21768;48.562;13.414;2023-09-30T03:21:15;98025.38;;;17.68;68.94
35649;BME280;21768;48.562;13.414;2023-09-30T03:23:41;98021.84;;;17.66;69.04
35649;BME280;21768;48.562;13.414;2023-09-30T03:26:06;98024.22;;;17.63;69.06
35649;BME280;21768;48.562;13.414;2023-09-30T03:28:35;98029.25;;;17.61;69.25
35649;BME280;21768;48.562;13.414;2023-09-30T03:31:01;98024.88;;;17.59;69.39
35649;BME280;21768;48.562;13.414;2023-09-30T03:33:26;98022.22;;;17.56;69.41
35649;BME280;21768;48.562;13.414;2023-09-30T03:35:52;98028.91;;;17.54;69.60
35649;BME280;21768;48.562;13.414;2023-09-30T03:38:17;98027.16;;;17.53;69.58
35649;BME280;21768;48.562;13.414;2023-09-30T03:40:45;98028.84;;;17.52;69.93
35649;BME280;21768;48.562;13.414;2023-09-30T03:43:13;98026.06;;;17.48;69.91
35649;BME280;21768;48.562;13.414;2023-09-30T03:45:39;98028.53;;;17.46;69.74
35649;BME280;21768;48.562;13.414;2023-09-30T03:48:06;98027.44;;;17.41;69.96
35649;BME280;21768;48.562;13.414;2023-09-30T03:50:32;98035.66;;;17.35;70.11
35649;BME280;21768;48.562;13.414;2023-09-30T03:53:02;98033.84;;;17.33;70.31
35649;BME280;21768;48.562;13.414;2023-09-30T03:55:28;98036.25;;;17.30;70.42
35649;BME280;21768;48.562;13.414;2023-09-30T03:57:54;98035.22;;;17.26;70.48
35649;BME280;21768;48.562;13.414;2023-09-30T04:00:20;98035.97;;;17.24;70.60
35649;BME280;21768;48.562;13.414;2023-09-30T04:02:46;98036.53;;;17.18;70.67
35649;BME280;21768;48.562;13.414;2023-09-30T04:05:15;98050.00;;;17.16;70.61
35649;BME280;21768;48.562;13.414;2023-09-30T04:07:42;98051.81;;;17.18;70.84
35649;BME280;21768;48.562;13.414;2023-09-30T04:10:09;98051.09;;;17.21;70.67
35649;BME280;21768;48.562;13.414;2023-09-30T04:12:35;98051.50;;;17.28;70.34
35649;BME280;21768;48.562;13.414;2023-09-30T04:15:00;98061.91;;;17.33;70.29
35649;BME280;21768;48.562;13.414;2023-09-30T04:17:26;98066.13;;;17.32;70.16
35649;BME280;21768;48.562;13.414;2023-09-30T04:19:52;98070.38;;;17.32;70.28
35649;BME280;21768;48.562;13.414;2023-09-30T04:22:18;98068.56;;;17.29;70.31
35649;BME280;21768;48.562;13.414;2023-09-30T04:24:47;98065.28;;;17.32;70.11
35649;BME280;21768;48.562;13.414;2023-09-30T04:27:14;98066.28;;;17.35;70.11
35649;BME280;21768;48.562;13.414;2023-09-30T04:29:40;98070.81;;;17.41;69.73
35649;BME280;21768;48.562;13.414;2023-09-30T04:32:06;98069.94;;;17.41;69.87
35649;BME280;21768;48.562;13.414;2023-09-30T04:34:31;98081.88;;;17.42;69.96
35649;BME280;21768;48.562;13.414;2023-09-30T04:36:57;98081.88;;;17.42;69.78
35649;BME280;21768;48.562;13.414;2023-09-30T04:39:22;98087.00;;;17.42;69.71
35649;BME280;21768;48.562;13.414;2023-09-30T04:41:47;98092.41;;;17.48;69.95
35649;BME280;21768;48.562;13.414;2023-09-30T04:44:14;98087.47;;;17.51;69.73
35649;BME280;21768;48.562;13.414;2023-09-30T04:46:39;98093.50;;;17.53;70.08
35649;BME280;21768;48.562;13.414;2023-09-30T04:49:12;98092.88;;;17.57;69.77
35649;BME280;21768;48.562;13.414;2023-09-30T04:51:38;98092.03;;;17.58;69.50
35649;BME280;21768;48.562;13.414;2023-09-30T04:54:04;98087.75;;;17.57;69.87
35649;BME280;21768;48.562;13.414;2023-09-30T04:56:33;98092.03;;;17.58;70.00
35649;BME280;21768;48.562;13.414;2023-09-30T04:59:00;98090.34;;;17.58;70.00
35649;BME280;21768;48.562;13.414;2023-09-30T05:01:26;98093.00;;;17.60;69.92
35649;BME280;21768;48.562;13.414;2023-09-30T05:03:51;98094.00;;;17.63;69.97
35649;BME280;21768;48.562;13.414;2023-09-30T05:06:17;98098.44;;;17.66;70.08
35649;BME280;21768;48.562;13.414;2023-09-30T05:08:42;98098.44;;;17.66;69.65
35649;BME280;21768;48.562;13.414;2023-09-30T05:11:07;98106.38;;;17.72;69.86
35649;BME280;21768;48.562;13.414;2023-09-30T05:13:33;98112.75;;;17.80;69.65
35649;BME280;21768;48.562;13.414;2023-09-30T05:16:01;98116.53;;;17.88;69.52
35649;BME280;21768;48.562;13.414;2023-09-30T05:18:28;98110.91;;;17.95;69.77
35649;BME280;21768;48.562;13.414;2023-09-30T05:20:53;98111.88;;;17.97;69.90
35649;BME280;21768;48.562;13.414;2023-09-30T05:23:19;98111.06;;;17.98;69.80
35649;BME280;21768;48.562;13.414;2023-09-30T05:25:44;98118.88;;;18.01;69.60
35649;BME280;21768;48.562;13.414;2023-09-30T05:28:09;98121.50;;;18.03;69.67
35649;BME280;21768;48.562;13.414;2023-09-30T05:30:36;98127.56;;;18.05;69.94
35649;BME280;21768;48.562;13.414;2023-09-30T05:33:02;98116.59;;;18.08;69.96
35649;BME280;21768;48.562;13.414;2023-09-30T05:35:28;98125.34;;;18.13;69.15
35649;BME280;21768;48.562;13.414;2023-09-30T05:37:54;98122.78;;;18.13;69.31
35649;BME280;21768;48.562;13.414;2023-09-30T05:40:20;98106.81;;;18.17;69.28
35649;BME280;21768;48.562;13.414;2023-09-30T05:42:55;98117.97;;;18.19;69.09
35649;BME280;21768;48.562;13.414;2023-09-30T05:45:24;98124.13;;;18.22;69.07
35649;BME280;21768;48.562;13.414;2023-09-30T05:47:49;98126.09;;;18.28;68.55
35649;BME280;21768;48.562;13.414;2023-09-30T05:50:18;98132.94;;;18.29;68.18
35649;BME280;21768;48.562;13.414;2023-09-30T05:52:45;98136.44;;;18.31;68.12
35649;BME280;21768;48.562;13.414;2023-09-30T05:55:11;98133.13;;;18.33;68.03
35649;BME280;21768;48.562;13.414;2023-09-30T05:57:37;98139.41;;;18.40;68.57
35649;BME280;21768;48.562;13.414;2023-09-30T06:00:04;98133.72;;;18.46;68.18
35649;BME280;21768;48.562;13.414;2023-09-30T06:02:36;98146.06;;;18.54;68.22
35649;BME280;21768;48.562;13.414;2023-09-30T06:05:02;98138.50;;;18.57;68.14
35649;BME280;21768;48.562;13.414;2023-09-30T06:07:28;98131.50;;;18.53;67.52
35649;BME280;21768;48.562;13.414;2023-09-30T06:09:54;98119.69;;;18.55;68.15
35649;BME280;21768;48.562;13.414;2023-09-30T06:12:19;98119.97;;;18.61;67.39
35649;BME280;21768;48.562;13.414;2023-09-30T06:14:44;98127.03;;;18.67;67.54
35649;BME280;21768;48.562;13.414;2023-09-30T06:17:10;98129.16;;;18.76;67.13
35649;BME280;21768;48.562;13.414;2023-09-30T06:19:35;98137.84;;;18.79;67.39
35649;BME280;21768;48.562;13.414;2023-09-30T06:22:03;98135.72;;;18.71;66.82
35649;BME280;21768;48.562;13.414;2023-09-30T06:24:28;98146.56;;;18.65;66.94
35649;BME280;21768;48.562;13.414;2023-09-30T06:26:53;98149.03;;;18.63;67.20
35649;BME280;21768;48.562;13.414;2023-09-30T06:29:19;98140.56;;;18.64;67.98
35649;BME280;21768;48.562;13.414;2023-09-30T06:31:44;98142.47;;;18.68;67.14
35649;BME280;21768;48.562;13.414;2023-09-30T06:34:10;98141.66;;;18.69;67.40
35649;BME280;21768;48.562;13.414;2023-09-30T06:36:36;98142.59;;;18.72;67.16
35649;BME280;21768;48.562;13.414;2023-09-30T06:39:03;98144.50;;;18.76;67.19
35649;BME280;21768;48.562;13.414;2023-09-30T06:41:31;98147.31;;;18.82;67.33
35649;BME280;21768;48.562;13.414;2023-09-30T06:43:56;98139.91;;;18.88;67.10
35649;BME280;21768;48.562;13.414;2023-09-30T06:46:22;98147.41;;;19.02;66.92
35649;BME280;21768;48.562;13.414;2023-09-30T06:48:49;98141.84;;;19.13;66.13
35649;BME280;21768;48.562;13.414;2023-09-30T06:51:17;98139.50;;;19.17;66.11
35649;BME280;21768;48.562;13.414;2023-09-30T06:53:43;98150.41;;;19.13;65.90
35649;BME280;21768;48.562;13.414;2023-09-30T06:56:08;98153.09;;;19.16;66.59
35649;BME280;21768;48.562;13.414;2023-09-30T06:58:34;98156.13;;;19.27;65.90
35649;BME280;21768;48.562;13.414;2023-09-30T07:01:00;98172.38;;;19.27;65.66
35649;BME280;21768;48.562;13.414;2023-09-30T07:03:26;98171.56;;;19.28;65.89
35649;BME280;21768;48.562;13.414;2023-09-30T07:05:51;98184.72;;;19.37;65.72
35649;BME280;21768;48.562;13.414;2023-09-30T07:08:19;98185.00;;;19.44;65.59
35649;BME280;21768;48.562;13.414;2023-09-30T07:10:47;98183.53;;;19.49;66.51
35649;BME280;21768;48.562;13.414;2023-09-30T07:13:15;98190.66;;;19.56;65.46
35649;BME280;21768;48.562;13.414;2023-09-30T07:15:41;98191.81;;;19.62;65.53
35649;BME280;21768;48.562;13.414;2023-09-30T07:18:06;98192.47;;;19.78;65.35
35649;BME280;21768;48.562;13.414;2023-09-30T07:20:31;98193.38;;;19.80;64.08
35649;BME280;21768;48.562;13.414;2023-09-30T07:23:01;98194.25;;;19.80;65.17
35649;BME280;21768;48.562;13.414;2023-09-30T07:25:27;98200.03;;;19.95;64.21
35649;BME280;21768;48.562;13.414;2023-09-30T07:27:52;98204.59;;;20.02;64.01
35649;BME280;21768;48.562;13.414;2023-09-30T07:30:18;98200.03;;;19.95;63.28
35649;BME280;21768;48.562;13.414;2023-09-30T07:32:44;98202.19;;;19.86;63.71
35649;BME280;21768;48.562;13.414;2023-09-30T07:35:12;98200.56;;;19.88;63.83
35649;BME280;21768;48.562;13.414;2023-09-30T07:37:40;98202.94;;;20.04;63.43
35649;BME280;21768;48.562;13.414;2023-09-30T07:40:07;98202.84;;;20.22;62.65
35649;BME280;21768;48.562;13.414;2023-09-30T07:42:32;98195.84;;;20.39;62.62
35649;BME280;21768;48.562;13.414;2023-09-30T07:44:58;98198.72;;;20.69;61.98
35649;BME280;21768;48.562;13.414;2023-09-30T07:47:24;98191.06;;;20.93;61.90
35649;BME280;21768;48.562;13.414;2023-09-30T07:49:49;98185.81;;;20.90;60.74
35649;BME280;21768;48.562;13.414;2023-09-30T07:52:15;98187.13;;;20.79;60.91
35649;BME280;21768;48.562;13.414;2023-09-30T07:54:40;98207.16;;;20.66;60.87
35649;BME280;21768;48.562;13.414;2023-09-30T07:57:06;98207.84;;;20.40;61.34
35649;BME280;21768;48.562;13.414;2023-09-30T07:59:31;98217.22;;;20.19;62.15
35649;BME280;21768;48.562;13.414;2023-09-30T08:01:58;98216.75;;;20.08;62.67
35649;BME280;21768;48.562;13.414;2023-09-30T08:04:24;98218.56;;;20.11;62.44
35649;BME280;21768;48.562;13.414;2023-09-30T08:06:50;98223.34;;;20.01;62.53
35649;BME280;21768;48.562;13.414;2023-09-30T08:09:16;98217.47;;;20.04;62.73
35649;BME280;21768;48.562;13.414;2023-09-30T08:11:44;98214.38;;;20.13;62.48
35649;BME280;21768;48.562;13.414;2023-09-30T08:14:09;98221.06;;;20.30;62.35
35649;BME280;21768;48.562;13.414;2023-09-30T08:16:38;98222.19;;;20.57;61.67
35649;BME280;21768;48.562;13.414;2023-09-30T08:19:04;98219.81;;;20.62;60.94
35649;BME280;21768;48.562;13.414;2023-09-30T08:21:30;98216.16;;;20.78;60.86
35649;BME280;21768;48.562;13.414;2023-09-30T08:23:56;98218.06;;;21.52;59.88
35649;BME280;21768;48.562;13.414;2023-09-30T08:26:22;98212.56;;;22.43;56.38
35649;BME280;21768;48.562;13.414;2023-09-30T08:28:48;98203.63;;;22.87;54.91
35649;BME280;21768;48.562;13.414;2023-09-30T08:31:14;98206.81;;;22.78;55.00
35649;BME280;21768;48.562;13.414;2023-09-30T08:33:39;98216.13;;;22.74;55.46
35649;BME280;21768;48.562;13.414;2023-09-30T08:36:10;98214.19;;;22.67;55.16
35649;BME280;21768;48.562;13.414;2023-09-30T08:38:40;98212.09;;;22.29;55.80
35649;BME280;21768;48.562;13.414;2023-09-30T08:41:06;98215.97;;;22.16;56.93
35649;BME280;21768;48.562;13.414;2023-09-30T08:43:37;98215.75;;;21.85;56.49
35649;BME280;21768;48.562;13.414;2023-09-30T08:46:03;98214.09;;;21.87;56.92
35649;BME280;21768;48.562;13.414;2023-09-30T08:48:31;98219.31;;;22.14;56.75
35649;BME280;21768;48.562;13.414;2023-09-30T08:50:58;98219.22;;;22.64;56.39
35649;BME280;21768;48.562;13.414;2023-09-30T08:53:25;98215.34;;;23.05;54.76
35649;BME280;21768;48.562;13.414;2023-09-30T08:55:55;98222.09;;;23.02;54.74
35649;BME280;21768;48.562;13.414;2023-09-30T08:58:25;98223.22;;;22.82;54.90
35649;BME280;21768;48.562;13.414;2023-09-30T09:00:51;98226.03;;;22.62;55.12
35649;BME280;21768;48.562;13.414;2023-09-30T09:03:18;98222.59;;;22.35;55.99
35649;BME280;21768;48.562;13.414;2023-09-30T09:05:45;98224.44;;;22.39;56.00
35649;BME280;21768;48.562;13.414;2023-09-30T09:08:10;98226.53;;;22.24;56.33
35649;BME280;21768;48.562;13.414;2023-09-30T09:10:35;98224.72;;;21.96;56.77
35649;BME280;21768;48.562;13.414;2023-09-30T09:13:13;98229.66;;;21.66;57.39
35649;BME280;21768;48.562;13.414;2023-09-30T09:15:38;98224.72;;;21.47;57.78
35649;BME280;21768;48.562;13.414;2023-09-30T09:18:04;98231.84;;;21.31;58.17
35649;BME280;21768;48.562;13.414;2023-09-30T09:20:29;98233.59;;;21.32;58.90
35649;BME280;21768;48.562;13.414;2023-09-30T09:22:55;98235.69;;;21.43;59.35
35649;BME280;21768;48.562;13.414;2023-09-30T09:25:24;98227.81;;;21.62;59.19
35649;BME280;21768;48.562;13.414;2023-09-30T09:27:51;98229.25;;;21.78;58.56
35649;BME280;21768;48.562;13.414;2023-09-30T09:35:26;98238.13;;;21.87;57.33
35649;BME280;21768;48.562;13.414;2023-09-30T09:40:24;98231.13;;;21.83;58.01
35649;BME280;21768;48.562;13.414;2023-09-30T09:42:50;98232.34;;;22.18;57.35
35649;BME280;21768;48.562;13.414;2023-09-30T09:45:21;98236.75;;;22.22;55.90
35649;BME280;21768;48.562;13.414;2023-09-30T09:47:48;98243.97;;;22.34;56.33
35649;BME280;21768;48.562;13.414;2023-09-30T09:50:14;98237.41;;;22.42;56.08
35649;BME280;21768;48.562;13.414;2023-09-30T09:52:41;98241.25;;;22.56;55.52
35649;BME280;21768;48.562;13.414;2023-09-30T09:55:10;98219.38;;;24.22;51.71
35649;BME280;21768;48.562;13.414;2023-09-30T09:57:36;98214.38;;;25.43;48.92
35649;BME280;21768;48.562;13.414;2023-09-30T10:00:02;98217.38;;;25.65;48.34
35649;BME280;21768;48.562;13.414;2023-09-30T10:02:32;98215.22;;;25.88;47.85
35649;BME280;21768;48.562;13.414;2023-09-30T10:04:57;98207.38;;;26.33;46.27
35649;BME280;21768;48.562;13.414;2023-09-30T10:07:28;98218.28;;;26.69;45.05
35649;BME280;21768;48.562;13.414;2023-09-30T10:09:55;98217.97;;;26.50;46.34
35649;BME280;21768;48.562;13.414;2023-09-30T10:12:24;98225.25;;;26.19;47.05
35649;BME280;21768;48.562;13.414;2023-09-30T10:14:52;98230.16;;;25.59;49.16
35649;BME280;21768;48.562;13.414;2023-09-30T10:17:17;98219.75;;;25.56;48.46
35649;BME280;21768;48.562;13.414;2023-09-30T10:20:04;98220.59;;;26.01;47.36
35649;BME280;21768;48.562;13.414;2023-09-30T10:22:32;98207.97;;;26.74;45.87
35649;BME280;21768;48.562;13.414;2023-09-30T10:24:59;98208.19;;;26.88;43.91
35649;BME280;21768;48.562;13.414;2023-09-30T10:29:57;98196.41;;;25.96;46.14
35649;BME280;21768;48.562;13.414;2023-09-30T10:35:44;98184.38;;;25.53;48.14
35649;BME280;21768;48.562;13.414;2023-09-30T10:40:49;98179.06;;;27.04;44.66
35649;BME280;21768;48.562;13.414;2023-09-30T10:43:37;98182.94;;;26.71;45.32
35649;BME280;21768;48.562;13.414;2023-09-30T10:46:10;98181.44;;;26.30;44.33
35649;BME280;21768;48.562;13.414;2023-09-30T10:48:49;98167.13;;;26.53;44.04
35649;BME280;21768;48.562;13.414;2023-09-30T10:51:16;98183.97;;;26.86;44.21
35649;BME280;21768;48.562;13.414;2023-09-30T10:53:45;98187.44;;;26.86;43.56
35649;BME280;21768;48.562;13.414;2023-09-30T10:56:12;98188.19;;;26.23;43.69
35649;BME280;21768;48.562;13.414;2023-09-30T10:58:51;98195.91;;;26.74;43.52
35649;BME280;21768;48.562;13.414;2023-09-30T11:01:18;98195.53;;;27.09;42.27
35649;BME280;21768;48.562;13.414;2023-09-30T11:03:45;98194.25;;;27.48;42.05
35649;BME280;21768;48.562;13.414;2023-09-30T11:06:15;98189.09;;;28.40;41.55
35649;BME280;21768;48.562;13.414;2023-09-30T11:09:00;98192.53;;;28.36;41.46
35649;BME280;21768;48.562;13.414;2023-09-30T11:14:03;98190.50;;;29.39;39.33
35649;BME280;21768;48.562;13.414;2023-09-30T11:16:40;98199.91;;;29.07;40.05
35649;BME280;21768;48.562;13.414;2023-09-30T11:19:06;98199.06;;;29.09;40.18
35649;BME280;21768;48.562;13.414;2023-09-30T11:21:36;98196.50;;;29.17;39.24
35649;BME280;21768;48.562;13.414;2023-09-30T11:24:02;98191.22;;;29.03;39.23
35649;BME280;21768;48.562;13.414;2023-09-30T11:26:31;98202.31;;;28.78;39.44
35649;BME280;21768;48.562;13.414;2023-09-30T11:29:04;98195.72;;;28.04;40.19
35649;BME280;21768;48.562;13.414;2023-09-30T11:31:30;98201.44;;;26.99;41.59
35649;BME280;21768;48.562;13.414;2023-09-30T11:33:59;98201.28;;;26.31;43.63
35649;BME280;21768;48.562;13.414;2023-09-30T11:36:33;98200.44;;;26.32;44.00
35649;BME280;21768;48.562;13.414;2023-09-30T11:38:59;98201.97;;;26.21;44.02
35649;BME280;21768;48.562;13.414;2023-09-30T11:41:39;98204.81;;;25.85;44.92
35649;BME280;21768;48.562;13.414;2023-09-30T11:44:08;98202.81;;;25.68;43.86
35649;BME280;21768;48.562;13.414;2023-09-30T11:49:36;98197.69;;;24.89;46.02
35649;BME280;21768;48.562;13.414;2023-09-30T11:52:09;98198.53;;;24.50;47.24
35649;BME280;21768;48.562;13.414;2023-09-30T11:54:38;98197.94;;;24.60;46.63
35649;BME280;21768;48.562;13.414;2023-09-30T11:57:07;98188.28;;;24.53;47.34
35649;BME280;21768;48.562;13.414;2023-09-30T11:59:35;98192.81;;;24.26;47.63
35649;BME280;21768;48.562;13.414;2023-09-30T12:02:01;98198.34;;;23.72;48.79
35649;BME280;21768;48.562;13.414;2023-09-30T12:04:26;98199.66;;;23.28;50.05
35649;BME280;21768;48.562;13.414;2023-09-30T12:06:52;98204.31;;;23.10;50.46
35649;BME280;21768;48.562;13.414;2023-09-30T12:09:18;98198.31;;;23.11;51.18
35649;BME280;21768;48.562;13.414;2023-09-30T12:11:54;98194.59;;;22.99;51.63
35649;BME280;21768;48.562;13.414;2023-09-30T12:14:22;98200.41;;;22.94;52.08
35649;BME280;21768;48.562;13.414;2023-09-30T12:16:48;98196.78;;;22.87;51.37
35649;BME280;21768;48.562;13.414;2023-09-30T12:19:19;98195.88;;;22.58;52.41
35649;BME280;21768;48.562;13.414;2023-09-30T12:21:46;98192.94;;;22.46;52.71
35649;BME280;21768;48.562;13.414;2023-09-30T12:24:16;98189.06;;;22.32;53.15
35649;BME280;21768;48.562;13.414;2023-09-30T12:26:50;98190.44;;;22.21;53.08
35649;BME280;21768;48.562;13.414;2023-09-30T12:29:21;98186.88;;;22.17;53.73
35649;BME280;21768;48.562;13.414;2023-09-30T12:31:48;98196.41;;;22.20;53.84
35649;BME280;21768;48.562;13.414;2023-09-30T12:34:14;98196.03;;;22.09;54.04
35649;BME280;21768;48.562;13.414;2023-09-30T12:36:40;98191.66;;;22.06;54.73
35649;BME280;21768;48.562;13.414;2023-09-30T12:39:07;98192.69;;;22.12;54.93
35649;BME280;21768;48.562;13.414;2023-09-30T12:41:43;98191.75;;;22.10;54.87
35649;BME280;21768;48.562;13.414;2023-09-30T12:44:09;98185.09;;;22.15;55.34
35649;BME280;21768;48.562;13.414;2023-09-30T12:46:36;98183.75;;;22.26;55.08
35649;BME280;21768;48.562;13.414;2023-09-30T12:49:06;98186.06;;;22.45;54.37
35649;BME280;21768;48.562;13.414;2023-09-30T12:51:32;98195.63;;;22.49;53.73
35649;BME280;21768;48.562;13.414;2023-09-30T12:53:59;98195.16;;;22.35;55.45
35649;BME280;21768;48.562;13.414;2023-09-30T12:56:25;98195.94;;;22.33;55.07
35649;BME280;21768;48.562;13.414;2023-09-30T12:58:50;98187.41;;;22.34;54.15
35649;BME280;21768;48.562;13.414;2023-09-30T13:01:16;98175.56;;;22.39;54.54
35649;BME280;21768;48.562;13.414;2023-09-30T13:03:44;98178.19;;;22.40;54.82
35649;BME280;21768;48.562;13.414;2023-09-30T13:06:09;98169.50;;;22.37;54.90
35649;BME280;21768;48.562;13.414;2023-09-30T13:08:35;98167.88;;;22.67;54.94
35649;BME280;21768;48.562;13.414;2023-09-30T13:11:02;98173.84;;;22.95;53.96